createdAt,value
2023-01-21T00:08:12.139Z,15.47
2023-01-21T00:18:15.177Z,16.57
2023-01-21T00:28:19.479Z,16.17
2023-01-21T00:38:22.838Z,15.73
2023-01-21T00:48:25.282Z,16.33
2023-01-21T00:58:27.865Z,15.87
2023-01-21T01:08:30.224Z,15.40
2023-01-21T01:18:35.111Z,16.43
2023-01-21T01:28:40.611Z,15.93
2023-01-21T01:38:43.995Z,17.53
2023-01-21T01:48:50.877Z,15.80
2023-01-21T01:58:53.210Z,15.37
2023-01-21T02:08:55.983Z,17.20
2023-01-21T02:19:35.730Z,14.87
2023-01-21T02:30:02.896Z,16.40
2023-01-21T02:40:25.557Z,14.37
2023-01-21T02:50:30.374Z,16.43
2023-01-21T03:00:55.505Z,16.40
2023-01-21T03:11:11.796Z,17.17
2023-01-21T03:21:17.777Z,15.90
2023-01-21T03:31:24.236Z,16.77
2023-01-21T03:41:33.519Z,17.80
2023-01-21T03:51:40.254Z,16.90
2023-01-21T04:01:42.328Z,15.97
2023-01-21T04:11:44.612Z,17.27
2023-01-21T04:21:46.769Z,15.73
2023-01-21T04:31:49.952Z,15.77
2023-01-21T04:41:52.076Z,16.40
2023-01-21T04:51:54.236Z,15.87
2023-01-21T05:01:56.529Z,16.83
2023-01-21T05:11:58.604Z,14.97
2023-01-21T05:22:00.942Z,17.27
2023-01-21T05:32:03.111Z,15.63
2023-01-21T05:42:05.305Z,15.97
2023-01-21T05:52:07.457Z,16.10
2023-01-21T06:02:10.203Z,16.37
2023-01-21T06:12:12.482Z,15.60
2023-01-21T06:22:18.472Z,15.83
2023-01-21T06:32:20.878Z,15.37
2023-01-21T06:42:24.054Z,15.97
2023-01-21T06:52:26.381Z,15.20
2023-01-21T07:02:28.499Z,15.77
2023-01-21T07:12:30.779Z,16.37
2023-01-21T07:22:36.149Z,16.77
2023-01-21T07:32:38.337Z,17.10
2023-01-21T07:42:40.636Z,18.80
2023-01-21T07:52:47.063Z,18.63
2023-01-21T08:02:54.407Z,20.80
2023-01-21T08:12:57.540Z,19.90
2023-01-21T08:23:00.593Z,20.13
2023-01-21T08:33:03.862Z,18.80
2023-01-21T08:43:09.265Z,17.80
2023-01-21T08:53:11.860Z,16.97
2023-01-21T09:03:17.010Z,15.90
2023-01-21T09:13:20.168Z,15.50
2023-01-21T09:23:26.251Z,16.10
2023-01-21T09:33:30.251Z,14.70
2023-01-21T09:43:38.456Z,15.23
2023-01-21T09:53:48.939Z,15.13
2023-01-21T10:04:32.397Z,15.57
2023-01-21T10:14:50.635Z,16.87
2023-01-21T10:25:00.270Z,16.50
2023-01-21T10:35:03.006Z,17.37
2023-01-21T10:45:26.728Z,15.87
2023-01-21T10:55:36.384Z,16.77
2023-01-21T11:05:38.738Z,18.83
2023-01-21T11:15:46.200Z,18.27
2023-01-21T11:25:49.093Z,17.73
2023-01-21T11:35:53.543Z,18.57
2023-01-21T11:45:57.103Z,19.40
2023-01-21T11:56:02.726Z,19.07
2023-01-21T12:06:07.123Z,19.43
2023-01-21T12:16:24.805Z,19.70
2023-01-21T12:26:50.664Z,18.17
2023-01-21T12:36:58.029Z,18.37
2023-01-21T12:47:06.173Z,18.17
2023-01-21T12:57:22.179Z,16.63
2023-01-21T13:07:47.470Z,15.97
2023-01-21T13:17:52.799Z,15.10
2023-01-21T13:28:19.867Z,14.80
2023-01-21T13:38:27.709Z,13.70
2023-01-21T13:48:32.813Z,13.90
2023-01-21T13:58:57.552Z,12.50
2023-01-21T14:09:29.590Z,13.30
2023-01-21T14:19:53.028Z,12.50
2023-01-21T14:30:07.027Z,11.50
2023-01-21T14:40:17.210Z,10.33
2023-01-21T14:50:52.643Z,11.03
2023-01-21T15:00:55.100Z,10.50
2023-01-21T15:11:05.782Z,9.17
2023-01-21T15:21:43.538Z,9.33
2023-01-21T15:31:45.992Z,7.87
2023-01-21T15:42:19.685Z,15.87
2023-01-21T15:52:40.708Z,9.40
2023-01-21T16:02:52.258Z,6.10
2023-01-21T16:13:13.919Z,5.23
2023-01-21T16:23:17.386Z,6.20
2023-01-21T16:33:19.596Z,6.13
2023-01-21T16:43:24.841Z,6.47
2023-01-21T16:53:27.659Z,9.33
2023-01-21T17:03:29.886Z,10.80
2023-01-21T17:13:32.366Z,8.80
2023-01-21T17:23:37.447Z,9.80
2023-01-21T17:33:40.222Z,9.67
2023-01-21T17:43:49.013Z,10.13
2023-01-21T17:53:56.276Z,11.93
2023-01-21T18:03:58.468Z,12.97
2023-01-21T18:14:00.643Z,12.90
2023-01-21T18:24:03.091Z,13.10
2023-01-21T18:34:06.431Z,15.60
2023-01-21T18:44:08.768Z,15.70
2023-01-21T18:54:13.453Z,14.13
2023-01-21T19:04:18.230Z,14.93
2023-01-21T19:14:20.736Z,15.07
2023-01-21T19:24:22.896Z,16.67
2023-01-21T19:34:26.793Z,15.97
2023-01-21T19:44:30.104Z,16.03
2023-01-21T19:54:33.211Z,16.40
2023-01-21T20:04:35.543Z,15.90
2023-01-21T20:14:38.762Z,16.43
2023-01-21T20:24:40.946Z,18.20
2023-01-21T20:34:43.368Z,14.87
2023-01-21T20:44:45.640Z,15.57
2023-01-21T20:54:47.922Z,15.67
2023-01-21T21:04:50.397Z,15.60
2023-01-21T21:14:53.708Z,16.63
2023-01-21T21:24:55.890Z,14.93
2023-01-21T21:34:59.451Z,14.13
2023-01-21T21:45:03.078Z,14.30
2023-01-21T21:55:05.804Z,12.90
2023-01-21T22:05:11.496Z,12.67
2023-01-21T22:15:13.883Z,13.63
2023-01-21T22:25:16.642Z,14.67
2023-01-21T22:35:19.353Z,14.03
2023-01-21T22:45:22.253Z,13.60
2023-01-21T22:55:24.823Z,13.63
2023-01-21T23:05:30.858Z,14.10
2023-01-21T23:15:33.177Z,13.27
2023-01-21T23:25:43.443Z,13.77
2023-01-21T23:35:47.706Z,14.37
2023-01-21T23:45:51.009Z,13.77
2023-01-21T23:56:03.239Z,13.63
